Kingsland, GA (31548)

5:40 PM EDT on August 03, 2015 (GMT -0400)
TractorMan, Peeples Rd. | | Change Station
CLOSE
Current Station
Personal Weather Station
Location: Kingsland, GA
Elevation: 34 ft
Nearby Weather Stations

Elev 34 ft 30.77 °N, 81.73 °W | Updated 8 minutes ago

Overcast
Overcast
83.3 °F
Feels Like 94 °F
N
2.0
Wind Variable Wind from North
Gusts 5.0 mph

Today
High -- | Low -- °F
--% Chance of Precip.
Yesterday
High -- | Low -- °F
Precip. -- in
6:45 AM 8:20 PM
Waning Gibbous, 84% visible
Pressure 29.85 in
Visibility 0.8 miles
Clouds Mostly Cloudy 900 ft
Overcast 1800 ft
Heat Index 94 °F
Dew Point 78 °F
Humidity 85%
Rainfall 0.00 in
Snow Depth Not available.
UV 2 out of 12
Pollen 2.50 out of 12
Air Quality Not available.
Flu Activity Not available.
METAR KFHB 032115Z AUTO 24006KT 3/4SM TS BKN009 OVC018 28/25 A2985 RMK AO1 LTG DSNT S THRU W

More Conditions Fewer Conditions

Pressure 29.85 in
Visibility 0.8 miles
Clouds Mostly Cloudy 900 ft
Overcast 1800 ft
Heat Index 94 °F
Dew Point 78 °F
Humidity 85%
Rainfall 0.00 in
Snow Depth Not available.
UV 2 out of 12
Pollen 2.50 out of 12
Air Quality Not available.
Flu Activity Not available.
METAR KFHB 032115Z AUTO 24006KT 3/4SM TS BKN009 OVC018 28/25 A2985 RMK AO1 LTG DSNT S THRU W

More Conditions Fewer Conditions

10-Day Weather Forecast

×

Almanac

Astronomy

Aug. 03, 2015 Rise Set
Actual Time
Civil Twilight
Nautical Twilight
Astronomical Twilight
Moon
Length of Visible Light
Length of Day
Tomorrow will be .
, % of the Moon is Illuminated

Today's Extremes

State Highs State Lows

Community

WunderPhotos

Upload Photos

1,843,770 photos uploaded!

WunderBlogs® & News

Nearby

Air Quality

  Air Quality AQ Index Pollutant
Not available.

Snow Depth

Station Depth Elevation

Earthquake Activity

City Distance Mag. Time & Date
Minimum magnitude displayed is 2.5.

Coastal Water Temperatures

Place Temperature

Stations

Nearby Weather Stations

Station Location Temp. Windchill Dew Point Humidity Wind Precip. Elev Updated Type